sensor_id;sensor_type;location;lat;lon;timestamp;P1;durP1;ratioP1;P2;durP2;ratioP2
19691;SDS011;42748;50.016;19.890;2023-02-21T00:00:14;5.88;;;3.10;;
19691;SDS011;42748;50.016;19.890;2023-02-21T00:02:59;7.40;;;3.28;;
19691;SDS011;42748;50.016;19.890;2023-02-21T00:05:45;11.68;;;3.28;;
19691;SDS011;42748;50.016;19.890;2023-02-21T00:08:31;5.75;;;3.45;;
19691;SDS011;42748;50.016;19.890;2023-02-21T00:11:16;7.30;;;3.15;;
19691;SDS011;42748;50.016;19.890;2023-02-21T00:14:02;6.75;;;2.72;;
19691;SDS011;42748;50.016;19.890;2023-02-21T00:16:48;7.43;;;2.90;;
19691;SDS011;42748;50.016;19.890;2023-02-21T00:19:34;5.80;;;2.70;;
19691;SDS011;42748;50.016;19.890;2023-02-21T00:22:20;7.07;;;2.80;;
19691;SDS011;42748;50.016;19.890;2023-02-21T00:25:05;11.13;;;2.95;;
19691;SDS011;42748;50.016;19.890;2023-02-21T00:27:51;6.13;;;2.90;;
19691;SDS011;42748;50.016;19.890;2023-02-21T00:30:37;6.55;;;2.70;;
19691;SDS011;42748;50.016;19.890;2023-02-21T00:33:23;6.18;;;2.70;;
19691;SDS011;42748;50.016;19.890;2023-02-21T00:36:08;10.05;;;3.20;;
19691;SDS011;42748;50.016;19.890;2023-02-21T00:38:59;5.35;;;2.90;;
19691;SDS011;42748;50.016;19.890;2023-02-21T00:41:44;4.45;;;2.38;;
19691;SDS011;42748;50.016;19.890;2023-02-21T00:44:30;7.57;;;2.80;;
19691;SDS011;42748;50.016;19.890;2023-02-21T00:47:15;8.40;;;3.03;;
19691;SDS011;42748;50.016;19.890;2023-02-21T00:50:01;6.85;;;2.92;;
19691;SDS011;42748;50.016;19.890;2023-02-21T00:52:47;5.35;;;2.58;;
19691;SDS011;42748;50.016;19.890;2023-02-21T00:55:33;4.47;;;2.30;;
19691;SDS011;42748;50.016;19.890;2023-02-21T00:58:21;5.43;;;2.50;;
19691;SDS011;42748;50.016;19.890;2023-02-21T01:01:07;6.55;;;2.60;;
19691;SDS011;42748;50.016;19.890;2023-02-21T01:03:53;5.72;;;2.67;;
19691;SDS011;42748;50.016;19.890;2023-02-21T01:06:39;7.75;;;2.78;;
19691;SDS011;42748;50.016;19.890;2023-02-21T01:09:24;7.57;;;2.70;;
19691;SDS011;42748;50.016;19.890;2023-02-21T01:12:10;6.88;;;2.92;;
19691;SDS011;42748;50.016;19.890;2023-02-21T01:14:56;6.28;;;2.83;;
19691;SDS011;42748;50.016;19.890;2023-02-21T01:17:42;4.68;;;2.40;;
19691;SDS011;42748;50.016;19.890;2023-02-21T01:20:28;4.53;;;2.42;;
19691;SDS011;42748;50.016;19.890;2023-02-21T01:23:13;5.07;;;2.50;;
19691;SDS011;42748;50.016;19.890;2023-02-21T01:25:59;5.32;;;2.30;;
19691;SDS011;42748;50.016;19.890;2023-02-21T01:28:46;5.18;;;2.72;;
19691;SDS011;42748;50.016;19.890;2023-02-21T01:31:31;6.90;;;2.70;;
19691;SDS011;42748;50.016;19.890;2023-02-21T01:34:18;8.35;;;2.90;;
19691;SDS011;42748;50.016;19.890;2023-02-21T01:37:03;5.65;;;2.40;;
19691;SDS011;42748;50.016;19.890;2023-02-21T01:39:49;4.32;;;2.70;;
19691;SDS011;42748;50.016;19.890;2023-02-21T01:42:35;6.85;;;2.97;;
19691;SDS011;42748;50.016;19.890;2023-02-21T01:48:16;7.38;;;2.70;;
19691;SDS011;42748;50.016;19.890;2023-02-21T01:51:05;7.63;;;3.40;;
19691;SDS011;42748;50.016;19.890;2023-02-21T01:53:54;5.03;;;2.70;;
19691;SDS011;42748;50.016;19.890;2023-02-21T01:56:40;6.10;;;2.60;;
19691;SDS011;42748;50.016;19.890;2023-02-21T01:59:26;4.70;;;2.70;;
19691;SDS011;42748;50.016;19.890;2023-02-21T02:05:14;6.22;;;2.85;;
19691;SDS011;42748;50.016;19.890;2023-02-21T02:08:00;6.65;;;2.80;;
19691;SDS011;42748;50.016;19.890;2023-02-21T02:10:45;5.50;;;2.60;;
19691;SDS011;42748;50.016;19.890;2023-02-21T02:19:10;7.03;;;3.53;;
19691;SDS011;42748;50.016;19.890;2023-02-21T02:30:27;7.50;;;3.35;;
19691;SDS011;42748;50.016;19.890;2023-02-21T02:35:59;9.40;;;3.33;;
19691;SDS011;42748;50.016;19.890;2023-02-21T02:41:04;8.32;;;3.38;;
19691;SDS011;42748;50.016;19.890;2023-02-21T02:46:23;7.93;;;3.20;;
19691;SDS011;42748;50.016;19.890;2023-02-21T02:49:17;6.18;;;3.00;;
19691;SDS011;42748;50.016;19.890;2023-02-21T02:51:47;5.05;;;3.30;;
19691;SDS011;42748;50.016;19.890;2023-02-21T02:54:17;5.88;;;3.22;;
19691;SDS011;42748;50.016;19.890;2023-02-21T02:56:45;5.20;;;3.40;;
19691;SDS011;42748;50.016;19.890;2023-02-21T02:59:18;7.57;;;2.90;;
19691;SDS011;42748;50.016;19.890;2023-02-21T03:01:55;4.78;;;2.85;;
19691;SDS011;42748;50.016;19.890;2023-02-21T03:16:22;6.28;;;3.50;;
19691;SDS011;42748;50.016;19.890;2023-02-21T03:19:15;6.95;;;3.20;;
19691;SDS011;42748;50.016;19.890;2023-02-21T03:21:49;9.45;;;3.33;;
19691;SDS011;42748;50.016;19.890;2023-02-21T03:24:22;6.57;;;3.53;;
19691;SDS011;42748;50.016;19.890;2023-02-21T03:26:52;5.75;;;3.03;;
19691;SDS011;42748;50.016;19.890;2023-02-21T03:29:48;6.07;;;3.22;;
19691;SDS011;42748;50.016;19.890;2023-02-21T03:32:19;5.60;;;3.40;;
19691;SDS011;42748;50.016;19.890;2023-02-21T03:34:54;9.63;;;3.55;;
19691;SDS011;42748;50.016;19.890;2023-02-21T03:39:56;7.82;;;4.18;;
19691;SDS011;42748;50.016;19.890;2023-02-21T03:42:23;6.78;;;3.92;;
19691;SDS011;42748;50.016;19.890;2023-02-21T03:44:50;6.85;;;4.30;;
19691;SDS011;42748;50.016;19.890;2023-02-21T03:47:18;8.07;;;4.07;;
19691;SDS011;42748;50.016;19.890;2023-02-21T03:49:46;8.57;;;4.40;;
19691;SDS011;42748;50.016;19.890;2023-02-21T03:52:13;7.40;;;4.40;;
19691;SDS011;42748;50.016;19.890;2023-02-21T03:54:41;6.93;;;4.35;;
19691;SDS011;42748;50.016;19.890;2023-02-21T03:57:13;10.63;;;5.07;;
19691;SDS011;42748;50.016;19.890;2023-02-21T03:59:43;8.23;;;4.70;;
19691;SDS011;42748;50.016;19.890;2023-02-21T04:02:12;9.23;;;4.55;;
19691;SDS011;42748;50.016;19.890;2023-02-21T04:04:40;9.68;;;4.90;;
19691;SDS011;42748;50.016;19.890;2023-02-21T04:07:12;10.05;;;4.93;;
19691;SDS011;42748;50.016;19.890;2023-02-21T04:09:41;9.27;;;4.88;;
19691;SDS011;42748;50.016;19.890;2023-02-21T04:12:11;12.57;;;4.88;;
19691;SDS011;42748;50.016;19.890;2023-02-21T04:14:39;8.30;;;5.18;;
19691;SDS011;42748;50.016;19.890;2023-02-21T04:17:07;9.82;;;5.25;;
19691;SDS011;42748;50.016;19.890;2023-02-21T04:19:34;10.18;;;5.57;;
19691;SDS011;42748;50.016;19.890;2023-02-21T04:22:03;12.27;;;5.55;;
19691;SDS011;42748;50.016;19.890;2023-02-21T04:24:31;10.48;;;4.68;;
19691;SDS011;42748;50.016;19.890;2023-02-21T04:27:00;10.55;;;5.18;;
19691;SDS011;42748;50.016;19.890;2023-02-21T04:29:31;8.55;;;5.10;;
19691;SDS011;42748;50.016;19.890;2023-02-21T04:31:58;9.15;;;5.45;;
19691;SDS011;42748;50.016;19.890;2023-02-21T04:34:26;9.80;;;5.40;;
19691;SDS011;42748;50.016;19.890;2023-02-21T04:36:53;12.50;;;6.60;;
19691;SDS011;42748;50.016;19.890;2023-02-21T04:39:21;11.13;;;5.70;;
19691;SDS011;42748;50.016;19.890;2023-02-21T04:41:48;13.10;;;6.10;;
19691;SDS011;42748;50.016;19.890;2023-02-21T04:44:15;11.18;;;6.38;;
19691;SDS011;42748;50.016;19.890;2023-02-21T04:46:43;9.02;;;5.75;;
19691;SDS011;42748;50.016;19.890;2023-02-21T04:49:11;16.55;;;7.05;;
19691;SDS011;42748;50.016;19.890;2023-02-21T04:51:39;9.20;;;5.70;;
19691;SDS011;42748;50.016;19.890;2023-02-21T04:54:06;16.65;;;7.57;;
19691;SDS011;42748;50.016;19.890;2023-02-21T04:56:33;14.43;;;7.68;;
19691;SDS011;42748;50.016;19.890;2023-02-21T04:59:00;14.77;;;7.03;;
19691;SDS011;42748;50.016;19.890;2023-02-21T05:01:28;14.02;;;7.72;;
19691;SDS011;42748;50.016;19.890;2023-02-21T05:03:57;13.55;;;7.35;;
19691;SDS011;42748;50.016;19.890;2023-02-21T05:06:26;13.95;;;8.15;;
19691;SDS011;42748;50.016;19.890;2023-02-21T05:08:54;14.23;;;8.27;;
19691;SDS011;42748;50.016;19.890;2023-02-21T05:11:22;14.65;;;7.88;;
19691;SDS011;42748;50.016;19.890;2023-02-21T05:13:50;14.55;;;8.73;;
19691;SDS011;42748;50.016;19.890;2023-02-21T05:16:18;17.20;;;8.75;;
19691;SDS011;42748;50.016;19.890;2023-02-21T05:18:46;15.48;;;8.95;;
19691;SDS011;42748;50.016;19.890;2023-02-21T05:21:15;15.52;;;9.00;;
19691;SDS011;42748;50.016;19.890;2023-02-21T05:23:43;15.90;;;9.15;;
19691;SDS011;42748;50.016;19.890;2023-02-21T05:26:22;21.30;;;8.65;;
19691;SDS011;42748;50.016;19.890;2023-02-21T05:28:57;18.42;;;9.82;;
19691;SDS011;42748;50.016;19.890;2023-02-21T05:31:24;17.33;;;8.85;;
19691;SDS011;42748;50.016;19.890;2023-02-21T05:33:51;11.32;;;6.43;;
19691;SDS011;42748;50.016;19.890;2023-02-21T05:36:18;26.58;;;7.88;;
19691;SDS011;42748;50.016;19.890;2023-02-21T05:38:49;19.45;;;8.55;;
19691;SDS011;42748;50.016;19.890;2023-02-21T05:41:18;13.95;;;7.70;;
19691;SDS011;42748;50.016;19.890;2023-02-21T05:43:46;17.02;;;7.35;;
19691;SDS011;42748;50.016;19.890;2023-02-21T05:46:18;13.65;;;7.90;;
19691;SDS011;42748;50.016;19.890;2023-02-21T05:48:50;14.10;;;8.10;;
19691;SDS011;42748;50.016;19.890;2023-02-21T05:51:18;16.90;;;9.20;;
19691;SDS011;42748;50.016;19.890;2023-02-21T05:53:46;14.88;;;8.85;;
19691;SDS011;42748;50.016;19.890;2023-02-21T05:56:13;15.88;;;9.55;;
19691;SDS011;42748;50.016;19.890;2023-02-21T05:58:41;17.48;;;8.80;;
19691;SDS011;42748;50.016;19.890;2023-02-21T06:01:09;15.00;;;8.15;;
19691;SDS011;42748;50.016;19.890;2023-02-21T06:03:36;15.25;;;8.48;;
19691;SDS011;42748;50.016;19.890;2023-02-21T06:06:03;17.85;;;9.05;;
19691;SDS011;42748;50.016;19.890;2023-02-21T06:08:30;17.90;;;8.98;;
19691;SDS011;42748;50.016;19.890;2023-02-21T06:10:57;15.52;;;8.73;;
19691;SDS011;42748;50.016;19.890;2023-02-21T06:13:24;17.48;;;8.80;;
19691;SDS011;42748;50.016;19.890;2023-02-21T06:15:51;17.08;;;6.90;;
19691;SDS011;42748;50.016;19.890;2023-02-21T06:18:20;13.55;;;7.65;;
19691;SDS011;42748;50.016;19.890;2023-02-21T06:20:47;13.32;;;6.93;;
19691;SDS011;42748;50.016;19.890;2023-02-21T06:23:14;14.68;;;8.63;;
19691;SDS011;42748;50.016;19.890;2023-02-21T06:25:41;16.65;;;8.80;;
19691;SDS011;42748;50.016;19.890;2023-02-21T06:28:08;15.32;;;8.80;;
19691;SDS011;42748;50.016;19.890;2023-02-21T06:30:35;18.70;;;9.93;;
19691;SDS011;42748;50.016;19.890;2023-02-21T06:33:02;14.85;;;8.50;;
19691;SDS011;42748;50.016;19.890;2023-02-21T06:35:29;16.75;;;9.57;;
19691;SDS011;42748;50.016;19.890;2023-02-21T06:37:56;18.23;;;9.23;;
19691;SDS011;42748;50.016;19.890;2023-02-21T06:40:23;18.52;;;9.20;;
19691;SDS011;42748;50.016;19.890;2023-02-21T06:42:50;19.88;;;9.50;;
19691;SDS011;42748;50.016;19.890;2023-02-21T06:45:17;19.25;;;8.90;;
19691;SDS011;42748;50.016;19.890;2023-02-21T06:47:44;20.30;;;9.45;;
19691;SDS011;42748;50.016;19.890;2023-02-21T06:50:11;18.25;;;8.88;;
19691;SDS011;42748;50.016;19.890;2023-02-21T06:52:38;15.23;;;8.27;;
19691;SDS011;42748;50.016;19.890;2023-02-21T06:55:06;21.90;;;9.52;;
19691;SDS011;42748;50.016;19.890;2023-02-21T06:57:33;17.70;;;9.57;;
19691;SDS011;42748;50.016;19.890;2023-02-21T07:00:01;16.95;;;8.98;;
19691;SDS011;42748;50.016;19.890;2023-02-21T07:02:28;19.00;;;9.45;;
19691;SDS011;42748;50.016;19.890;2023-02-21T07:04:55;15.55;;;8.75;;
19691;SDS011;42748;50.016;19.890;2023-02-21T07:07:23;17.05;;;8.80;;
19691;SDS011;42748;50.016;19.890;2023-02-21T07:09:50;16.92;;;8.43;;
19691;SDS011;42748;50.016;19.890;2023-02-21T07:12:17;17.38;;;8.10;;
19691;SDS011;42748;50.016;19.890;2023-02-21T07:14:44;15.93;;;7.22;;
19691;SDS011;42748;50.016;19.890;2023-02-21T07:17:11;11.98;;;7.13;;
19691;SDS011;42748;50.016;19.890;2023-02-21T07:19:38;16.27;;;8.15;;
19691;SDS011;42748;50.016;19.890;2023-02-21T07:22:05;17.98;;;9.13;;
19691;SDS011;42748;50.016;19.890;2023-02-21T07:24:33;16.98;;;9.00;;
19691;SDS011;42748;50.016;19.890;2023-02-21T07:27:02;15.90;;;6.60;;
19691;SDS011;42748;50.016;19.890;2023-02-21T07:29:30;18.15;;;8.43;;
19691;SDS011;42748;50.016;19.890;2023-02-21T07:31:57;19.63;;;8.68;;
19691;SDS011;42748;50.016;19.890;2023-02-21T07:34:24;11.93;;;6.95;;
19691;SDS011;42748;50.016;19.890;2023-02-21T07:36:51;12.10;;;7.30;;
19691;SDS011;42748;50.016;19.890;2023-02-21T07:39:18;11.32;;;6.75;;
19691;SDS011;42748;50.016;19.890;2023-02-21T07:41:45;12.85;;;7.45;;
19691;SDS011;42748;50.016;19.890;2023-02-21T07:44:21;18.17;;;8.10;;
19691;SDS011;42748;50.016;19.890;2023-02-21T07:46:48;14.02;;;7.60;;
19691;SDS011;42748;50.016;19.890;2023-02-21T07:49:15;13.00;;;5.93;;
19691;SDS011;42748;50.016;19.890;2023-02-21T07:51:42;15.60;;;7.22;;
19691;SDS011;42748;50.016;19.890;2023-02-21T07:54:09;12.60;;;6.50;;
19691;SDS011;42748;50.016;19.890;2023-02-21T07:56:41;12.15;;;7.03;;
19691;SDS011;42748;50.016;19.890;2023-02-21T07:59:09;14.65;;;6.95;;
19691;SDS011;42748;50.016;19.890;2023-02-21T08:01:36;11.88;;;6.78;;
19691;SDS011;42748;50.016;19.890;2023-02-21T08:04:04;10.75;;;6.80;;
19691;SDS011;42748;50.016;19.890;2023-02-21T08:06:32;15.15;;;6.18;;
19691;SDS011;42748;50.016;19.890;2023-02-21T08:09:00;12.45;;;6.47;;
19691;SDS011;42748;50.016;19.890;2023-02-21T08:11:27;12.82;;;6.40;;
19691;SDS011;42748;50.016;19.890;2023-02-21T08:13:54;10.25;;;5.63;;
19691;SDS011;42748;50.016;19.890;2023-02-21T08:16:22;9.73;;;5.38;;
19691;SDS011;42748;50.016;19.890;2023-02-21T08:18:49;9.25;;;5.50;;
19691;SDS011;42748;50.016;19.890;2023-02-21T08:21:16;10.48;;;5.63;;
19691;SDS011;42748;50.016;19.890;2023-02-21T08:23:44;9.70;;;5.65;;
19691;SDS011;42748;50.016;19.890;2023-02-21T08:26:11;8.82;;;5.10;;
19691;SDS011;42748;50.016;19.890;2023-02-21T08:28:38;8.45;;;5.32;;
19691;SDS011;42748;50.016;19.890;2023-02-21T08:31:05;9.30;;;5.47;;
19691;SDS011;42748;50.016;19.890;2023-02-21T08:33:32;9.45;;;5.53;;
19691;SDS011;42748;50.016;19.890;2023-02-21T08:35:59;11.27;;;5.20;;
19691;SDS011;42748;50.016;19.890;2023-02-21T08:38:27;9.02;;;5.45;;
19691;SDS011;42748;50.016;19.890;2023-02-21T08:40:54;8.60;;;5.15;;
19691;SDS011;42748;50.016;19.890;2023-02-21T08:43:25;9.18;;;4.75;;
19691;SDS011;42748;50.016;19.890;2023-02-21T08:45:54;9.73;;;5.28;;
19691;SDS011;42748;50.016;19.890;2023-02-21T08:48:21;9.65;;;5.15;;
19691;SDS011;42748;50.016;19.890;2023-02-21T08:50:48;8.50;;;5.18;;
19691;SDS011;42748;50.016;19.890;2023-02-21T08:53:17;8.07;;;4.53;;
19691;SDS011;42748;50.016;19.890;2023-02-21T08:55:44;8.15;;;4.90;;
19691;SDS011;42748;50.016;19.890;2023-02-21T08:58:12;9.82;;;5.00;;
19691;SDS011;42748;50.016;19.890;2023-02-21T09:00:40;8.30;;;4.47;;
19691;SDS011;42748;50.016;19.890;2023-02-21T09:03:08;6.82;;;4.00;;
19691;SDS011;42748;50.016;19.890;2023-02-21T09:05:35;7.60;;;4.03;;
19691;SDS011;42748;50.016;19.890;2023-02-21T09:08:02;7.22;;;4.22;;
19691;SDS011;42748;50.016;19.890;2023-02-21T09:10:31;7.47;;;4.70;;
19691;SDS011;42748;50.016;19.890;2023-02-21T09:12:59;8.15;;;4.70;;
19691;SDS011;42748;50.016;19.890;2023-02-21T09:15:30;9.00;;;5.10;;
19691;SDS011;42748;50.016;19.890;2023-02-21T09:17:57;12.45;;;5.50;;
19691;SDS011;42748;50.016;19.890;2023-02-21T09:20:26;7.70;;;4.82;;
19691;SDS011;42748;50.016;19.890;2023-02-21T09:22:54;9.05;;;5.53;;
19691;SDS011;42748;50.016;19.890;2023-02-21T09:25:22;10.88;;;5.78;;
19691;SDS011;42748;50.016;19.890;2023-02-21T09:27:50;9.05;;;5.35;;
19691;SDS011;42748;50.016;19.890;2023-02-21T09:30:21;10.23;;;5.97;;
19691;SDS011;42748;50.016;19.890;2023-02-21T09:32:49;10.73;;;6.68;;
19691;SDS011;42748;50.016;19.890;2023-02-21T09:35:17;10.13;;;5.90;;
19691;SDS011;42748;50.016;19.890;2023-02-21T09:37:44;10.65;;;5.68;;
19691;SDS011;42748;50.016;19.890;2023-02-21T09:40:14;10.63;;;6.40;;
19691;SDS011;42748;50.016;19.890;2023-02-21T09:43:07;11.98;;;7.45;;
19691;SDS011;42748;50.016;19.890;2023-02-21T09:45:40;11.32;;;6.57;;
19691;SDS011;42748;50.016;19.890;2023-02-21T09:48:18;11.80;;;6.25;;
19691;SDS011;42748;50.016;19.890;2023-02-21T09:50:58;12.13;;;6.10;;
19691;SDS011;42748;50.016;19.890;2023-02-21T09:53:29;13.02;;;6.82;;
19691;SDS011;42748;50.016;19.890;2023-02-21T09:56:05;13.18;;;7.10;;
19691;SDS011;42748;50.016;19.890;2023-02-21T09:58:40;11.75;;;6.55;;
19691;SDS011;42748;50.016;19.890;2023-02-21T10:03:59;9.70;;;5.78;;
19691;SDS011;42748;50.016;19.890;2023-02-21T10:06:42;10.48;;;5.82;;
19691;SDS011;42748;50.016;19.890;2023-02-21T10:12:25;10.45;;;5.40;;
19691;SDS011;42748;50.016;19.890;2023-02-21T10:18:24;10.05;;;5.20;;
19691;SDS011;42748;50.016;19.890;2023-02-21T10:21:00;8.23;;;5.15;;
19691;SDS011;42748;50.016;19.890;2023-02-21T10:23:36;11.18;;;5.57;;
19691;SDS011;42748;50.016;19.890;2023-02-21T10:26:08;10.43;;;5.53;;
19691;SDS011;42748;50.016;19.890;2023-02-21T10:28:38;11.93;;;5.82;;
19691;SDS011;42748;50.016;19.890;2023-02-21T10:31:51;12.65;;;6.00;;
19691;SDS011;42748;50.016;19.890;2023-02-21T10:33:57;10.57;;;5.85;;
19691;SDS011;42748;50.016;19.890;2023-02-21T10:36:26;9.13;;;5.20;;
19691;SDS011;42748;50.016;19.890;2023-02-21T10:38:55;7.65;;;4.68;;
19691;SDS011;42748;50.016;19.890;2023-02-21T10:41:31;7.97;;;4.63;;
19691;SDS011;42748;50.016;19.890;2023-02-21T10:44:09;8.35;;;5.25;;
19691;SDS011;42748;50.016;19.890;2023-02-21T10:46:39;6.82;;;4.32;;
19691;SDS011;42748;50.016;19.890;2023-02-21T10:52:12;7.78;;;4.60;;
19691;SDS011;42748;50.016;19.890;2023-02-21T10:57:58;9.77;;;5.82;;
19691;SDS011;42748;50.016;19.890;2023-02-21T11:03:05;9.57;;;5.78;;
19691;SDS011;42748;50.016;19.890;2023-02-21T11:05:49;9.18;;;5.55;;
19691;SDS011;42748;50.016;19.890;2023-02-21T11:08:34;7.70;;;5.30;;
19691;SDS011;42748;50.016;19.890;2023-02-21T11:11:04;7.82;;;5.43;;
19691;SDS011;42748;50.016;19.890;2023-02-21T11:13:31;8.32;;;5.63;;
19691;SDS011;42748;50.016;19.890;2023-02-21T11:16:06;8.30;;;5.53;;
19691;SDS011;42748;50.016;19.890;2023-02-21T11:18:37;7.75;;;4.82;;
19691;SDS011;42748;50.016;19.890;2023-02-21T11:21:14;8.23;;;5.53;;
19691;SDS011;42748;50.016;19.890;2023-02-21T11:26:30;7.20;;;5.40;;
19691;SDS011;42748;50.016;19.890;2023-02-21T11:29:08;9.57;;;5.68;;
19691;SDS011;42748;50.016;19.890;2023-02-21T11:31:40;7.68;;;5.00;;
19691;SDS011;42748;50.016;19.890;2023-02-21T11:34:09;6.47;;;4.55;;
19691;SDS011;42748;50.016;19.890;2023-02-21T11:36:40;7.50;;;4.47;;
19691;SDS011;42748;50.016;19.890;2023-02-21T11:41:50;7.47;;;4.55;;
19691;SDS011;42748;50.016;19.890;2023-02-21T11:47:25;5.03;;;3.70;;
19691;SDS011;42748;50.016;19.890;2023-02-21T11:50:05;5.47;;;3.53;;
19691;SDS011;42748;50.016;19.890;2023-02-21T11:52:36;6.03;;;3.80;;
19691;SDS011;42748;50.016;19.890;2023-02-21T11:55:21;5.95;;;3.97;;
19691;SDS011;42748;50.016;19.890;2023-02-21T12:00:29;6.93;;;4.18;;
19691;SDS011;42748;50.016;19.890;2023-02-21T12:03:27;6.07;;;3.80;;
19691;SDS011;42748;50.016;19.890;2023-02-21T12:14:05;4.57;;;3.13;;
19691;SDS011;42748;50.016;19.890;2023-02-21T12:22:34;5.68;;;3.10;;
19691;SDS011;42748;50.016;19.890;2023-02-21T12:25:22;4.53;;;3.13;;
19691;SDS011;42748;50.016;19.890;2023-02-21T12:38:51;4.20;;;3.03;;
19691;SDS011;42748;50.016;19.890;2023-02-21T12:41:41;3.95;;;2.47;;
19691;SDS011;42748;50.016;19.890;2023-02-21T12:44:21;4.28;;;2.60;;
19691;SDS011;42748;50.016;19.890;2023-02-21T12:47:03;4.20;;;2.70;;
19691;SDS011;42748;50.016;19.890;2023-02-21T12:52:47;5.70;;;2.90;;
19691;SDS011;42748;50.016;19.890;2023-02-21T12:55:20;4.55;;;2.70;;
19691;SDS011;42748;50.016;19.890;2023-02-21T12:57:53;4.75;;;2.70;;
19691;SDS011;42748;50.016;19.890;2023-02-21T13:00:38;4.82;;;3.10;;
19691;SDS011;42748;50.016;19.890;2023-02-21T13:03:22;5.22;;;3.33;;
19691;SDS011;42748;50.016;19.890;2023-02-21T13:06:26;5.15;;;3.53;;
19691;SDS011;42748;50.016;19.890;2023-02-21T13:14:16;7.50;;;3.65;;
19691;SDS011;42748;50.016;19.890;2023-02-21T13:16:51;6.10;;;3.67;;
19691;SDS011;42748;50.016;19.890;2023-02-21T13:19:18;7.22;;;3.80;;
19691;SDS011;42748;50.016;19.890;2023-02-21T13:24:59;5.10;;;3.30;;
19691;SDS011;42748;50.016;19.890;2023-02-21T13:30:24;4.82;;;3.22;;
19691;SDS011;42748;50.016;19.890;2023-02-21T13:33:03;6.20;;;3.35;;
19691;SDS011;42748;50.016;19.890;2023-02-21T13:35:35;5.60;;;3.13;;
19691;SDS011;42748;50.016;19.890;2023-02-21T13:38:07;3.88;;;2.78;;
19691;SDS011;42748;50.016;19.890;2023-02-21T13:43:25;3.65;;;2.60;;
19691;SDS011;42748;50.016;19.890;2023-02-21T13:45:59;4.90;;;2.42;;
19691;SDS011;42748;50.016;19.890;2023-02-21T13:51:55;4.35;;;2.70;;
19691;SDS011;42748;50.016;19.890;2023-02-21T13:57:40;3.85;;;2.58;;
19691;SDS011;42748;50.016;19.890;2023-02-21T14:10:54;6.50;;;3.47;;
19691;SDS011;42748;50.016;19.890;2023-02-21T14:18:44;7.60;;;3.47;;
19691;SDS011;42748;50.016;19.890;2023-02-21T14:21:16;5.55;;;3.30;;
19691;SDS011;42748;50.016;19.890;2023-02-21T14:23:48;4.50;;;2.72;;
19691;SDS011;42748;50.016;19.890;2023-02-21T14:34:31;4.80;;;2.53;;
19691;SDS011;42748;50.016;19.890;2023-02-21T14:42:43;4.72;;;2.65;;
19691;SDS011;42748;50.016;19.890;2023-02-21T14:45:16;6.13;;;3.13;;
19691;SDS011;42748;50.016;19.890;2023-02-21T14:50:28;5.38;;;2.80;;
19691;SDS011;42748;50.016;19.890;2023-02-21T14:55:50;4.32;;;2.80;;
19691;SDS011;42748;50.016;19.890;2023-02-21T15:01:13;5.25;;;3.08;;
19691;SDS011;42748;50.016;19.890;2023-02-21T15:09:36;7.30;;;3.40;;
19691;SDS011;42748;50.016;19.890;2023-02-21T15:12:05;7.50;;;3.75;;
19691;SDS011;42748;50.016;19.890;2023-02-21T15:14:45;6.15;;;3.70;;
19691;SDS011;42748;50.016;19.890;2023-02-21T15:17:21;6.88;;;3.17;;
19691;SDS011;42748;50.016;19.890;2023-02-21T15:20:01;5.45;;;3.45;;
19691;SDS011;42748;50.016;19.890;2023-02-21T15:22:42;6.50;;;3.47;;
19691;SDS011;42748;50.016;19.890;2023-02-21T15:25:11;5.90;;;3.67;;
19691;SDS011;42748;50.016;19.890;2023-02-21T15:32:56;5.47;;;3.20;;
19691;SDS011;42748;50.016;19.890;2023-02-21T15:35:35;4.82;;;3.10;;
19691;SDS011;42748;50.016;19.890;2023-02-21T15:38:08;6.00;;;3.10;;
19691;SDS011;42748;50.016;19.890;2023-02-21T15:40:46;5.45;;;3.22;;
19691;SDS011;42748;50.016;19.890;2023-02-21T15:43:51;6.85;;;3.30;;
19691;SDS011;42748;50.016;19.890;2023-02-21T15:46:52;8.07;;;3.90;;
19691;SDS011;42748;50.016;19.890;2023-02-21T15:49:31;4.80;;;3.17;;
19691;SDS011;42748;50.016;19.890;2023-02-21T15:52:03;6.40;;;3.60;;
19691;SDS011;42748;50.016;19.890;2023-02-21T15:54:31;8.13;;;3.70;;
19691;SDS011;42748;50.016;19.890;2023-02-21T15:57:11;5.85;;;3.28;;
19691;SDS011;42748;50.016;19.890;2023-02-21T15:59:56;5.65;;;2.83;;
19691;SDS011;42748;50.016;19.890;2023-02-21T16:02:42;6.97;;;2.72;;
19691;SDS011;42748;50.016;19.890;2023-02-21T16:05:29;4.90;;;2.83;;
19691;SDS011;42748;50.016;19.890;2023-02-21T16:07:59;5.18;;;2.72;;
19691;SDS011;42748;50.016;19.890;2023-02-21T16:10:30;5.53;;;2.90;;
19691;SDS011;42748;50.016;19.890;2023-02-21T16:13:01;6.22;;;3.03;;
19691;SDS011;42748;50.016;19.890;2023-02-21T16:15:32;5.97;;;2.78;;
19691;SDS011;42748;50.016;19.890;2023-02-21T16:18:02;5.20;;;2.97;;
19691;SDS011;42748;50.016;19.890;2023-02-21T16:20:34;5.28;;;2.90;;
19691;SDS011;42748;50.016;19.890;2023-02-21T16:28:24;5.03;;;3.22;;
19691;SDS011;42748;50.016;19.890;2023-02-21T16:30:52;5.30;;;3.45;;
19691;SDS011;42748;50.016;19.890;2023-02-21T16:33:21;5.45;;;3.70;;
19691;SDS011;42748;50.016;19.890;2023-02-21T16:35:48;6.05;;;4.00;;
19691;SDS011;42748;50.016;19.890;2023-02-21T16:38:17;6.63;;;3.40;;
19691;SDS011;42748;50.016;19.890;2023-02-21T16:40:45;5.38;;;3.47;;
19691;SDS011;42748;50.016;19.890;2023-02-21T16:43:17;5.95;;;3.38;;
19691;SDS011;42748;50.016;19.890;2023-02-21T16:45:47;6.20;;;3.55;;
19691;SDS011;42748;50.016;19.890;2023-02-21T16:48:19;7.10;;;4.00;;
19691;SDS011;42748;50.016;19.890;2023-02-21T16:50:54;5.97;;;3.63;;
19691;SDS011;42748;50.016;19.890;2023-02-21T16:53:21;6.45;;;3.80;;
19691;SDS011;42748;50.016;19.890;2023-02-21T16:55:48;6.82;;;3.60;;
19691;SDS011;42748;50.016;19.890;2023-02-21T16:58:22;6.70;;;3.72;;
19691;SDS011;42748;50.016;19.890;2023-02-21T17:00:56;9.15;;;4.13;;
19691;SDS011;42748;50.016;19.890;2023-02-21T17:03:31;6.80;;;4.05;;
19691;SDS011;42748;50.016;19.890;2023-02-21T17:05:59;8.30;;;4.35;;
19691;SDS011;42748;50.016;19.890;2023-02-21T17:08:26;8.02;;;4.80;;
19691;SDS011;42748;50.016;19.890;2023-02-21T17:10:54;9.95;;;4.65;;
19691;SDS011;42748;50.016;19.890;2023-02-21T17:13:22;10.25;;;5.28;;
19691;SDS011;42748;50.016;19.890;2023-02-21T17:15:50;8.55;;;5.20;;
19691;SDS011;42748;50.016;19.890;2023-02-21T17:18:20;9.90;;;5.35;;
19691;SDS011;42748;50.016;19.890;2023-02-21T17:20:47;10.95;;;5.45;;
19691;SDS011;42748;50.016;19.890;2023-02-21T17:23:14;9.65;;;5.30;;
19691;SDS011;42748;50.016;19.890;2023-02-21T17:25:41;9.65;;;5.30;;
19691;SDS011;42748;50.016;19.890;2023-02-21T17:28:08;10.80;;;5.80;;
19691;SDS011;42748;50.016;19.890;2023-02-21T17:30:36;12.82;;;6.68;;
19691;SDS011;42748;50.016;19.890;2023-02-21T17:33:03;11.52;;;6.03;;
19691;SDS011;42748;50.016;19.890;2023-02-21T17:35:31;11.52;;;6.00;;
19691;SDS011;42748;50.016;19.890;2023-02-21T17:37:58;11.27;;;6.38;;
19691;SDS011;42748;50.016;19.890;2023-02-21T17:40:27;10.25;;;6.38;;
19691;SDS011;42748;50.016;19.890;2023-02-21T17:42:55;12.02;;;6.28;;
19691;SDS011;42748;50.016;19.890;2023-02-21T17:45:23;10.32;;;6.00;;
19691;SDS011;42748;50.016;19.890;2023-02-21T17:47:52;10.27;;;6.03;;
19691;SDS011;42748;50.016;19.890;2023-02-21T17:50:22;12.13;;;6.18;;
19691;SDS011;42748;50.016;19.890;2023-02-21T17:52:51;10.70;;;6.43;;
19691;SDS011;42748;50.016;19.890;2023-02-21T17:55:19;12.05;;;6.25;;
19691;SDS011;42748;50.016;19.890;2023-02-21T17:57:48;11.68;;;6.40;;